Time;durP1;ratioP1;P1;durP2;ratioP2;P2;SDS_P1;SDS_P2;PMS_P1;PMS_P2;Temp;Humidity;BMP_temperature;BMP_pressure;BME280_temperature;BME280_humidity;BME280_pressure;Samples;Min_cycle;Max_cycle;Signal;HPM_P1;HPM_P2
2022/07/25 00:02:12;;;;;;;11.80;8.03;;;;;;;19.61;100.00;99906.25;7391097;19;20411;-58
2022/07/25 00:04:44;;;;;;;12.97;9.13;;;;;;;19.65;100.00;99890.50;7397958;19;20736;-57
2022/07/25 00:07:14;;;;;;;11.50;8.60;;;;;;;19.62;100.00;99885.31;7390551;19;20478;-57
2022/07/25 00:09:44;;;;;;;11.03;8.90;;;;;;;19.56;100.00;99888.88;7398221;19;20392;-57
2022/07/25 00:12:14;;;;;;;12.90;9.20;;;;;;;19.59;100.00;99895.84;7391838;19;20440;-56
2022/07/25 00:14:44;;;;;;;12.63;8.80;;;;;;;19.56;100.00;99872.31;7397786;19;20807;-57
2022/07/25 00:17:13;;;;;;;10.40;8.47;;;;;;;19.42;100.00;99881.16;7390004;19;20405;-57
2022/07/25 00:19:45;;;;;;;12.07;8.17;;;;;;;19.43;100.00;99885.50;7397895;19;20518;-58
2022/07/25 00:22:15;;;;;;;13.30;8.60;;;;;;;19.42;100.00;99890.72;7391090;19;20411;-58
2022/07/25 00:24:44;;;;;;;11.17;8.20;;;;;;;19.35;100.00;99875.97;7396783;19;20379;-58
2022/07/25 00:27:14;;;;;;;11.40;8.73;;;;;;;19.40;100.00;99868.97;7390154;19;20478;-57
2022/07/25 00:29:44;;;;;;;9.57;8.43;;;;;;;19.33;100.00;99859.44;7397577;19;20396;-57
2022/07/25 00:32:13;;;;;;;11.27;8.23;;;;;;;19.34;100.00;99856.81;7390688;19;20527;-58
2022/07/25 00:34:45;;;;;;;13.10;8.50;;;;;;;19.34;100.00;99828.06;7396916;19;20770;-56
2022/07/25 00:37:15;;;;;;;10.03;8.20;;;;;;;19.30;100.00;99827.19;7388098;19;20422;-58
2022/07/25 00:39:44;;;;;;;11.90;8.50;;;;;;;19.36;100.00;99809.72;7394657;19;20388;-57
2022/07/25 00:42:14;;;;;;;12.00;8.87;;;;;;;19.29;100.00;99786.25;7391345;19;20464;-58
2022/07/25 00:44:43;;;;;;;14.67;9.97;;;;;;;19.25;100.00;99762.75;7400936;19;20400;-58
2022/07/25 00:47:13;;;;;;;12.33;9.23;;;;;;;19.25;100.00;99761.03;7389312;19;21104;-58
2022/07/25 00:49:45;;;;;;;10.70;8.10;;;;;;;19.28;100.00;99755.75;7396473;19;20396;-58
2022/07/25 00:52:15;;;;;;;13.30;8.67;;;;;;;19.28;100.00;99754.91;7390661;19;20948;-58
2022/07/25 00:54:45;;;;;;;11.50;8.47;;;;;;;19.23;100.00;99754.91;7395627;19;20406;-57
2022/07/25 00:57:14;;;;;;;10.20;8.10;;;;;;;19.14;100.00;99750.66;7389484;19;20491;-57
2022/07/25 00:59:44;;;;;;;12.20;8.80;;;;;;;19.12;100.00;99762.03;7393698;19;20937;-58
2022/07/25 01:02:13;;;;;;;15.07;9.10;;;;;;;19.16;100.00;99771.56;7389998;19;20427;-57
2022/07/25 01:04:46;;;;;;;11.07;8.20;;;;;;;19.13;100.00;99763.75;7395977;19;20390;-58
2022/07/25 01:07:15;;;;;;;12.23;8.63;;;;;;;19.07;100.00;99751.59;7388844;19;20415;-58
2022/07/25 01:09:45;;;;;;;10.63;8.87;;;;;;;18.98;100.00;99742.06;7396143;19;20394;-58
2022/07/25 01:12:14;;;;;;;11.10;8.57;;;;;;;18.95;100.00;99742.09;7390069;19;20407;-58
2022/07/25 01:14:44;;;;;;;10.93;7.77;;;;;;;18.94;100.00;99744.72;7395686;19;20929;-58
2022/07/25 01:17:14;;;;;;;11.17;8.80;;;;;;;18.93;100.00;99743.88;7388179;19;20403;-58
2022/07/25 01:19:46;;;;;;;9.00;7.70;;;;;;;18.98;100.00;99749.03;7385500;19;20416;-58
2022/07/25 01:22:18;;;;;;;10.00;7.60;;;;;;;18.98;100.00;99734.22;7390181;19;20404;-58
2022/07/25 01:24:48;;;;;;;14.60;9.00;;;;;;;18.98;100.00;99721.16;7395113;19;20749;-58
2022/07/25 01:27:18;;;;;;;11.63;8.47;;;;;;;18.98;100.00;99715.06;7388631;19;20407;-58
2022/07/25 01:29:48;;;;;;;10.47;8.10;;;;;;;18.99;100.00;99706.34;7395576;19;20387;-57
2022/07/25 01:32:18;;;;;;;12.50;8.67;;;;;;;19.01;100.00;99697.63;7389635;19;20413;-58
2022/07/25 01:34:47;;;;;;;11.00;8.77;;;;;;;18.96;100.00;99675.88;7394803;19;20392;-57
2022/07/25 01:37:19;;;;;;;10.80;7.80;;;;;;;18.93;100.00;99652.41;7387618;19;20407;-58
2022/07/25 01:39:49;;;;;;;11.90;8.93;;;;;;;18.92;100.00;99647.19;7393777;19;20380;-57
2022/07/25 01:42:18;;;;;;;11.03;7.80;;;;;;;18.88;100.00;99638.53;7390287;19;20746;-57
2022/07/25 01:44:48;;;;;;;10.37;7.83;;;;;;;18.81;100.00;99629.00;7394646;19;20391;-58
2022/07/25 01:47:18;;;;;;;9.17;7.53;;;;;;;18.87;100.00;99628.94;7387762;19;20746;-58
2022/07/25 01:49:48;;;;;;;13.00;7.83;;;;;;;18.83;100.00;99611.56;7397420;19;20464;-57
2022/07/25 01:52:20;;;;;;;13.53;8.20;;;;;;;18.85;100.00;99609.78;7391967;19;20403;-58
2022/07/25 01:54:49;;;;;;;10.80;8.40;;;;;;;18.74;100.00;99605.56;7394300;19;20384;-57
2022/07/25 01:57:19;;;;;;;14.63;8.67;;;;;;;18.81;100.00;99600.28;7388084;19;20735;-58
2022/07/25 01:59:51;;;;;;;10.43;7.80;;;;;;;18.83;100.00;99601.13;7393439;19;20383;-57
2022/07/25 02:02:20;;;;;;;12.97;8.13;;;;;;;19.00;100.00;99603.53;7388998;19;20395;-57
2022/07/25 02:04:50;;;;;;;12.73;8.07;;;;;;;19.08;100.00;99561.66;7394194;19;20376;-57
2022/07/25 02:07:22;;;;;;;14.80;8.00;;;;;;;19.20;100.00;99548.44;7387638;19;20418;-58
2022/07/25 02:09:51;;;;;;;14.83;7.57;;;;;;;19.07;100.00;99510.28;7393391;19;20394;-57
2022/07/25 02:12:25;;;;;;;11.47;7.90;;;;;;;19.12;100.00;99500.63;7388433;19;20435;-57
2022/07/25 02:14:55;;;;;;;12.60;7.87;;;;;;;19.20;100.00;99475.25;7393772;19;20384;-58
2022/07/25 02:17:24;;;;;;;9.37;7.30;;;;;;;19.28;100.00;99456.84;7388186;19;20415;-57
2022/07/25 02:19:54;;;;;;;27.80;16.70;;;;;;;19.23;100.00;99428.13;7392970;19;20387;-58
2022/07/25 02:22:26;;;;;;;18.80;12.07;;;;;;;19.30;100.00;99427.13;7388939;19;20752;-57
2022/07/25 02:24:56;;;;;;;27.17;17.83;;;;;;;19.22;100.00;99405.50;7393809;19;20922;-57
2022/07/25 02:27:25;;;;;;;51.33;32.80;;;;;;;19.29;100.00;99403.66;7388009;19;20494;-58
2022/07/25 02:29:54;;;;;;;41.37;28.10;;;;;;;19.27;100.00;99392.34;7393703;19;20391;-58
2022/07/25 02:32:24;;;;;;;41.83;27.37;;;;;;;19.38;100.00;99379.13;7388215;19;20399;-57
2022/07/25 02:34:54;;;;;;;18.73;11.70;;;;;;;19.31;100.00;99365.25;7393305;19;20391;-60
2022/07/25 02:37:26;;;;;;;19.37;13.73;;;;;;;19.17;100.00;99368.09;7386672;19;20946;-58
2022/07/25 02:39:56;;;;;;;20.10;12.43;;;;;;;19.22;100.00;99354.97;7393316;19;20404;-58
2022/07/25 02:42:25;;;;;;;12.30;8.37;;;;;;;19.12;100.00;99351.66;7388560;19;20408;-55
2022/07/25 02:44:55;;;;;;;10.13;6.60;;;;;;;18.95;100.00;99352.72;7392881;19;20986;-58
2022/07/25 02:47:25;;;;;;;9.63;7.10;;;;;;;18.97;100.00;99348.34;7387765;19;20762;-58
2022/07/25 02:49:54;;;;;;;9.93;7.70;;;;;;;18.95;100.00;99347.50;7393003;19;20400;-58
2022/07/25 02:52:26;;;;;;;9.27;7.20;;;;;;;18.89;100.00;99339.75;7390088;19;20395;-56
2022/07/25 02:54:56;;;;;;;10.03;6.90;;;;;;;18.74;100.00;99335.63;7392416;19;20481;-56
2022/07/25 02:57:25;;;;;;;15.27;7.30;;;;;;;18.78;100.00;99331.22;7387284;19;20419;-57
2022/07/25 02:59:55;;;;;;;9.77;6.20;;;;;;;18.81;100.00;99325.94;7392117;19;20392;-58
2022/07/25 03:02:25;;;;;;;11.63;7.93;;;;;;;18.83;100.00;99325.06;7387466;19;20759;-59
2022/07/25 03:04:54;;;;;;;9.80;6.80;;;;;;;18.82;100.00;99330.28;7392337;19;20380;-58
2022/07/25 03:07:26;;;;;;;11.00;6.17;;;;;;;18.74;100.00;99320.81;7387169;19;20425;-58
2022/07/25 03:09:56;;;;;;;10.37;6.80;;;;;;;18.76;100.00;99326.88;7392934;19;20387;-58
2022/07/25 03:12:25;;;;;;;9.73;7.00;;;;;;;18.72;100.00;99316.50;7385897;19;20407;-58
2022/07/25 03:14:55;;;;;;;9.47;5.47;;;;;;;18.74;100.00;99319.94;7392075;19;20459;-58
2022/07/25 03:17:24;;;;;;;12.33;7.47;;;;;;;18.81;100.00;99323.34;7386990;19;20411;-58
2022/07/25 03:19:54;;;;;;;14.03;8.07;;;;;;;18.79;100.00;99309.41;7391421;19;20387;-58
2022/07/25 03:22:26;;;;;;;10.00;6.80;;;;;;;18.75;100.00;99312.09;7389847;19;20941;-58
2022/07/25 03:24:56;;;;;;;10.87;6.17;;;;;;;18.74;100.00;99314.72;7399189;19;20394;-59
2022/07/25 03:27:26;;;;;;;10.40;5.70;;;;;;;18.75;100.00;99308.59;7393800;19;20437;-58
2022/07/25 03:29:55;;;;;;;7.40;5.50;;;;;;;18.75;100.00;99304.25;7399667;19;20816;-58
2022/07/25 03:32:25;;;;;;;9.40;6.80;;;;;;;18.80;100.00;99306.78;7393657;19;20486;-58
2022/07/25 03:34:55;;;;;;;12.50;5.43;;;;;;;18.82;100.00;99301.56;7399239;19;20746;-58
2022/07/25 03:37:27;;;;;;;9.57;4.83;;;;;;;18.85;100.00;99311.94;7391990;19;20417;-59
2022/07/25 03:39:56;;;;;;;10.23;6.97;;;;;;;18.83;100.00;99309.38;7398289;19;20419;-59
2022/07/25 03:42:26;;;;;;;8.40;5.77;;;;;;;18.81;100.00;99313.75;7393327;19;20411;-58
2022/07/25 03:45:01;;;;;;;11.63;4.90;;;;;;;18.82;100.00;99317.22;7398901;19;20395;-58
2022/07/25 03:47:31;;;;;;;8.20;5.13;;;;;;;18.78;100.00;99319.03;7394544;19;20449;-58
2022/07/25 03:50:00;;;;;;;7.37;5.23;;;;;;;18.82;100.00;99312.00;7403006;19;20455;-58
2022/07/25 03:52:33;;;;;;;9.10;5.27;;;;;;;18.84;100.00;99323.28;7393078;19;20425;-58
2022/07/25 03:55:02;;;;;;;10.70;5.90;;;;;;;18.83;100.00;99318.94;7398090;19;20387;-59
2022/07/25 03:57:32;;;;;;;11.43;4.90;;;;;;;18.81;100.00;99331.19;7394865;19;20438;-58
2022/07/25 04:00:02;;;;;;;7.47;4.40;;;;;;;18.80;100.00;99332.03;7397793;19;20380;-58
2022/07/25 04:02:31;;;;;;;8.17;5.17;;;;;;;18.74;100.00;99333.88;7392527;19;20403;-57
2022/07/25 04:05:01;;;;;;;10.80;4.90;;;;;;;18.76;100.00;99342.56;7397991;19;20386;-59
2022/07/25 04:07:33;;;;;;;8.10;5.00;;;;;;;18.76;100.00;99332.09;7392363;19;20411;-58
2022/07/25 04:10:03;;;;;;;7.73;4.30;;;;;;;18.83;100.00;99342.47;7398862;19;20710;-59
2022/07/25 04:12:33;;;;;;;7.30;4.60;;;;;;;18.91;100.00;99348.44;7392234;19;20415;-59
2022/07/25 04:15:03;;;;;;;8.53;5.30;;;;;;;18.92;100.00;99344.91;7397493;19;20380;-59
2022/07/25 04:17:32;;;;;;;10.97;5.33;;;;;;;18.95;100.00;99344.00;7392641;19;20415;-58
2022/07/25 04:20:02;;;;;;;7.07;4.50;;;;;;;18.95;100.00;99352.72;7397281;19;20407;-58
2022/07/25 04:22:38;;;;;;;8.50;4.40;;;;;;;19.06;100.00;99342.13;7392086;19;20749;-59
2022/07/25 04:25:14;;;;;;;10.80;4.37;;;;;;;19.06;100.00;99362.19;7396475;19;20803;-59
2022/07/25 04:27:44;;;;;;;6.27;4.27;;;;;;;19.09;100.00;99356.91;7391837;19;20436;-59
2022/07/25 04:30:14;;;;;;;11.77;4.10;;;;;;;19.12;100.00;99356.88;7397448;19;20385;-59
2022/07/25 04:32:53;;;;;;;7.47;3.80;;;;;;;19.12;100.00;99367.34;7390730;19;20419;-57
2022/07/25 04:35:23;;;;;;;7.43;4.63;;;;;;;19.15;100.00;99357.69;7395947;19;20395;-56
2022/07/25 04:37:55;;;;;;;11.70;4.40;;;;;;;19.18;100.00;99361.13;7389301;19;20768;-58
2022/07/25 04:40:24;;;;;;;7.40;4.30;;;;;;;19.22;100.00;99347.97;7396575;19;20402;-59
2022/07/25 04:42:54;;;;;;;5.80;3.97;;;;;;;19.32;100.00;99366.16;7391505;19;20439;-59
2022/07/25 04:45:24;;;;;;;5.53;4.03;;;;;;;19.38;100.00;99379.13;7396426;19;20927;-59
2022/07/25 04:47:53;;;;;;;7.13;4.17;;;;;;;19.40;100.00;99385.19;7390843;19;20415;-58
2022/07/25 04:50:23;;;;;;;6.07;3.90;;;;;;;19.46;100.00;99392.91;7396951;19;20388;-57
2022/07/25 04:52:56;;;;;;;8.47;4.10;;;;;;;19.43;100.00;99377.25;7392018;19;20418;-58
2022/07/25 04:55:25;;;;;;;6.80;4.20;;;;;;;19.49;100.00;99387.63;7395672;19;20402;-57
2022/07/25 04:57:55;;;;;;;7.30;3.53;;;;;;;19.51;100.00;99384.97;7390656;19;20411;-58
2022/07/25 05:00:25;;;;;;;10.83;4.63;;;;;;;19.55;100.00;99379.66;7396190;19;20387;-58
2022/07/25 05:02:55;;;;;;;6.90;4.50;;;;;;;19.53;100.00;99391.91;7391081;19;20767;-59
2022/07/25 05:05:24;;;;;;;8.60;4.63;;;;;;;19.53;100.00;99389.31;7395621;19;20416;-58
2022/07/25 05:08:00;;;;;;;7.23;4.23;;;;;;;19.51;100.00;99380.63;7389137;19;20778;-55
2022/07/25 05:10:30;;;;;;;8.40;3.80;;;;;;;19.52;100.00;99386.72;7396657;19;20383;-58
2022/07/25 05:13:00;;;;;;;10.10;3.97;;;;;;;19.54;100.00;99380.56;7389820;19;20960;-59
2022/07/25 05:15:30;;;;;;;10.17;5.37;;;;;;;19.61;100.00;99380.47;7394696;19;20399;-58
2022/07/25 05:17:59;;;;;;;10.10;3.87;;;;;;;19.63;100.00;99395.25;7390299;19;20425;-59
2022/07/25 05:20:29;;;;;;;32.10;18.17;;;;;;;19.77;100.00;99376.69;7395613;19;20376;-57
2022/07/25 05:23:01;;;;;;;6.40;4.13;;;;;;;19.81;100.00;99409.78;7389664;19;20417;-58
2022/07/25 05:25:31;;;;;;;14.13;7.93;;;;;;;19.93;100.00;99415.66;7394696;19;20412;-58
2022/07/25 05:28:01;;;;;;;7.33;3.73;;;;;;;20.01;100.00;99442.59;7389787;19;20415;-58
2022/07/25 05:30:31;;;;;;;9.33;4.50;;;;;;;20.12;100.00;99449.38;7395901;19;20792;-58
2022/07/25 05:33:08;;;;;;;6.10;4.17;;;;;;;20.26;100.00;99455.22;7389186;19;20447;-59
2022/07/25 05:35:38;;;;;;;8.00;3.80;;;;;;;20.29;100.00;99463.00;7394317;19;20839;-58
2022/07/25 05:38:10;;;;;;;4.83;3.33;;;;;;;20.41;100.00;99469.75;7389054;19;20427;-56
2022/07/25 05:40:39;;;;;;;16.27;6.47;;;;;;;20.48;100.00;99487.09;7394890;19;20659;-58
2022/07/25 05:43:09;;;;;;;5.30;3.50;;;;;;;20.54;100.00;99504.44;7389474;19;20415;-57
2022/07/25 05:45:38;;;;;;;10.43;5.57;;;;;;;20.60;100.00;99493.84;7392162;19;20434;-57
2022/07/25 05:48:08;;;;;;;6.83;3.90;;;;;;;20.66;100.00;99489.38;7388828;19;20419;-58
2022/07/25 05:50:38;;;;;;;6.63;3.63;;;;;;;20.74;100.00;99505.81;7394883;19;20398;-59
2022/07/25 05:53:11;;;;;;;7.53;3.80;;;;;;;20.86;100.00;99523.09;7389286;19;20415;-56
2022/07/25 05:55:40;;;;;;;5.50;3.57;;;;;;;20.95;100.00;99535.13;7393405;19;20407;-54
2022/07/25 05:58:10;;;;;;;6.40;3.60;;;;;;;21.11;100.00;99546.16;7389066;19;20425;-57
2022/07/25 06:00:40;;;;;;;6.97;3.97;;;;;;;21.14;100.00;99578.44;7394391;19;20925;-58
2022/07/25 06:03:10;;;;;;;6.40;4.10;;;;;;;21.15;100.00;99564.44;7389007;19;20533;-55
2022/07/25 06:05:39;;;;;;;8.40;3.57;;;;;;;21.18;100.00;99574.84;7392946;19;20404;-59
2022/07/25 06:08:12;;;;;;;5.93;3.87;;;;;;;21.25;100.00;99574.72;7387755;19;20423;-58
2022/07/25 06:10:41;;;;;;;7.40;4.30;;;;;;;21.39;100.00;99577.03;7394516;19;20390;-57
2022/07/25 06:13:11;;;;;;;6.20;3.77;;;;;;;21.52;100.00;99609.09;7388665;19;20406;-57
2022/07/25 06:15:41;;;;;;;7.00;3.80;;;;;;;21.61;100.00;99619.41;7392874;19;20428;-57
2022/07/25 06:18:10;;;;;;;10.50;4.10;;;;;;;21.64;100.00;99623.72;7388012;19;20415;-59
2022/07/25 06:20:40;;;;;;;6.90;3.90;;;;;;;21.72;100.00;99621.81;7393959;19;20398;-59
2022/07/25 06:23:12;;;;;;;5.87;3.97;;;;;;;21.79;100.00;99618.16;7387665;19;20412;-57
2022/07/25 06:25:42;;;;;;;6.07;3.87;;;;;;;21.83;100.00;99630.31;7392421;19;20414;-59
2022/07/25 06:28:18;;;;;;;7.80;4.20;;;;;;;21.84;100.00;99637.28;7387515;19;20421;-56
2022/07/25 06:30:48;;;;;;;6.87;4.43;;;;;;;21.87;100.00;99628.50;7393916;19;20388;-59
2022/07/25 06:33:18;;;;;;;7.90;4.40;;;;;;;21.95;100.00;99642.28;7388391;19;20411;-59
2022/07/25 06:35:47;;;;;;;8.00;4.00;;;;;;;22.06;100.00;99634.19;7392011;19;20434;-58
2022/07/25 06:38:19;;;;;;;11.60;4.80;;;;;;;22.17;100.00;99660.19;7388314;19;20399;-56
2022/07/25 06:40:49;;;;;;;8.15;4.05;;;;;;;22.29;100.00;99673.94;7393409;19;20395;-59
2022/07/25 06:43:19;;;;;;;10.87;4.33;;;;;;;22.42;100.00;99666.59;7385696;19;20454;-59
2022/07/25 06:45:49;;;;;;;7.70;3.77;;;;;;;22.42;100.00;99675.34;7391754;19;20411;-59
2022/07/25 06:48:19;;;;;;;6.67;4.63;;;;;;;22.46;100.00;99686.66;7386625;19;20506;-59
2022/07/25 06:50:49;;;;;;;10.43;3.90;;;;;;;22.56;100.00;99689.94;7393227;19;20383;-62
2022/07/25 06:53:21;;;;;;;9.97;5.30;;;;;;;22.58;100.00;99696.00;7389211;19;20435;-59
2022/07/25 06:55:50;;;;;;;11.93;7.17;;;;;;;22.61;100.00;99690.69;7391005;19;20942;-59
2022/07/25 06:58:20;;;;;;;8.13;4.27;;;;;;;22.56;100.00;99677.66;7387284;19;20407;-59
2022/07/25 07:00:52;;;;;;;5.57;3.53;;;;;;;22.61;100.00;99680.19;7392945;19;20425;-59
2022/07/25 07:03:23;;;;;;;9.00;4.43;;;;;;;22.60;100.00;99676.69;7383772;19;20411;-59
2022/07/25 07:05:53;;;;;;;5.70;3.70;;;;;;;22.70;100.00;99669.41;7391194;19;20431;-59
2022/07/25 07:08:25;;;;;;;7.07;4.17;;;;;;;22.78;100.00;99641.16;7387111;19;20411;-59
2022/07/25 07:10:54;;;;;;;7.80;3.93;;;;;;;22.86;100.00;99663.78;7392791;19;20391;-59
2022/07/25 07:13:24;;;;;;;8.80;4.23;;;;;;;22.96;100.00;99657.34;7386026;19;20417;-59
2022/07/25 07:15:54;;;;;;;7.30;3.90;;;;;;;23.11;100.00;99644.69;7390745;19;20407;-59
2022/07/25 07:18:25;;;;;;;8.40;5.27;;;;;;;23.35;100.00;99658.06;7387238;19;20423;-59
2022/07/25 07:20:54;;;;;;;6.90;4.67;;;;;;;23.47;100.00;99668.25;7392461;19;20402;-59
2022/07/25 07:23:27;;;;;;;11.20;4.50;;;;;;;23.62;100.00;99677.47;7385450;19;20415;-59
2022/07/25 07:25:57;;;;;;;9.30;4.53;;;;;;;23.78;100.00;99685.75;7390674;19;20424;-59
2022/07/25 07:28:27;;;;;;;6.57;4.77;;;;;;;23.93;100.00;99713.41;7386698;19;20411;-59
2022/07/25 07:30:56;;;;;;;6.97;4.50;;;;;;;24.07;100.00;99697.22;7396654;19;20391;-59
2022/07/25 07:33:44;;;;;;;7.60;4.30;;;;;;;24.18;100.00;99741.66;7385385;19;20411;-59
2022/07/25 07:36:14;;;;;;;7.57;4.83;;;;;;;24.30;100.00;99766.75;7390280;19;20412;-59
2022/07/25 07:38:47;;;;;;;7.50;4.83;;;;;;;24.43;100.00;99767.25;7385008;19;20411;-58
2022/07/25 07:41:17;;;;;;;8.10;4.83;;;;;;;24.64;100.00;99762.19;7392166;19;20387;-59
2022/07/25 07:43:47;;;;;;;8.90;5.00;;;;;;;24.72;100.00;99773.34;7385899;19;20579;-59
2022/07/25 07:46:16;;;;;;;8.70;4.80;;;;;;;24.76;100.00;99774.97;7390081;19;20777;-59
2022/07/25 07:48:46;;;;;;;10.20;5.17;;;;;;;24.84;100.00;99772.09;7386447;19;20403;-59
2022/07/25 07:51:15;;;;;;;7.97;4.67;;;;;;;24.91;100.00;99784.19;7391908;19;20402;-59
2022/07/25 07:56:29;;;;;;;8.00;5.10;;;;;;;25.01;100.00;99770.69;7390239;19;20425;-59
2022/07/25 07:59:00;;;;;;;9.47;5.10;;;;;;;25.07;100.00;99778.41;7390793;19;20438;-60
2022/07/25 08:01:30;;;;;;;12.03;4.83;;;;;;;25.13;100.00;99769.41;7391215;19;20388;-59
2022/07/25 08:03:59;;;;;;;7.40;5.03;;;;;;;25.21;100.00;99755.03;7389592;19;20495;-59
2022/07/25 08:06:29;;;;;;;7.40;4.73;;;;;;;25.38;100.00;99803.69;7389734;19;20423;-59
2022/07/25 08:09:01;;;;;;;10.53;4.90;;;;;;;25.44;100.00;99836.94;7393417;19;20743;-59
2022/07/25 08:11:31;;;;;;;8.03;5.13;;;;;;;25.61;100.00;99820.53;7400222;19;20395;-62
2022/07/25 08:14:01;;;;;;;11.43;4.50;;;;;;;25.82;100.00;99828.59;7391777;19;20946;-59
2022/07/25 08:16:30;;;;;;;11.17;5.70;;;;;;;25.86;100.00;99846.94;7399191;19;20419;-60
2022/07/25 08:19:00;;;;;;;18.30;5.33;;;;;;;26.05;100.00;99840.97;7398521;19;20446;-60
2022/07/25 08:21:30;;;;;;;8.53;5.47;;;;;;;25.99;100.00;99854.41;7398185;19;20388;-60
2022/07/25 08:24:02;;;;;;;10.80;5.10;;;;;;;26.15;100.00;99849.41;7396581;19;20446;-60
2022/07/25 08:26:35;;;;;;;8.20;5.27;;;;;;;26.12;100.00;99854.81;7389973;19;20430;-60
2022/07/25 08:29:05;;;;;;;12.20;5.27;;;;;;;26.29;100.00;99855.06;7397395;19;20388;-60
2022/07/25 08:31:55;;;;;;;15.37;5.80;;;;;;;26.39;100.00;99873.19;7391649;19;20411;-60
2022/07/25 08:34:24;;;;;;;8.63;5.20;;;;;;;26.58;100.00;99875.13;7397088;19;20391;-61
2022/07/25 08:36:54;;;;;;;14.50;5.63;;;;;;;26.78;100.00;99861.13;7389658;19;20415;-60
2022/07/25 08:39:26;;;;;;;9.10;5.30;;;;;;;26.91;100.00;99872.97;7397553;19;20483;-60
2022/07/25 08:41:56;;;;;;;8.73;5.13;;;;;;;27.12;100.00;99869.50;7389092;19;20409;-60
2022/07/25 08:44:30;;;;;;;10.20;5.40;;;;;;;27.33;100.00;99878.34;7396766;19;20410;-60
2022/07/25 08:47:01;;;;;;;16.13;6.10;;;;;;;27.32;100.00;99874.81;7389201;19;20433;-60
2022/07/25 08:49:31;;;;;;;8.60;5.40;;;;;;;27.29;100.00;99885.56;7399967;19;20395;-60
2022/07/25 08:52:00;;;;;;;10.07;5.67;;;;;;;27.41;100.00;99881.50;7389421;19;20483;-60
2022/07/25 08:54:33;;;;;;;8.90;6.13;;;;;;;27.58;100.00;99880.81;7396314;19;20386;-61
2022/07/25 08:57:03;;;;;;;8.90;5.53;;;;;;;27.68;100.00;99898.97;7390446;19;20427;-60
2022/07/25 08:59:33;;;;;;;12.50;5.83;;;;;;;27.73;100.00;99919.03;7396537;19;20392;-60
2022/07/25 09:02:05;;;;;;;10.37;5.50;;;;;;;27.86;100.00;99922.00;7388878;19;21201;-62
2022/07/25 09:04:36;;;;;;;18.30;5.67;;;;;;;27.95;100.00;99911.94;7394710;19;20388;-60
2022/07/25 09:07:06;;;;;;;8.03;5.50;;;;;;;27.98;100.00;99927.66;7388731;19;20411;-60
2022/07/25 09:09:43;;;;;;;9.73;6.10;;;;;;;28.00;100.00;99945.22;7396781;19;20392;-60
2022/07/25 09:12:12;;;;;;;10.17;5.87;;;;;;;28.15;100.00;99935.75;7389577;19;20422;-60
2022/07/25 09:14:43;;;;;;;11.00;6.97;;;;;;;28.17;100.00;99960.41;7393958;19;20388;-60
2022/07/25 09:17:13;;;;;;;9.87;5.97;;;;;;;28.15;100.00;99940.19;7387713;19;20395;-60
2022/07/25 09:19:55;;;;;;;12.10;6.13;;;;;;;28.36;100.00;99938.41;7395682;19;20419;-60
2022/07/25 09:22:25;;;;;;;9.20;6.43;;;;;;;28.62;100.00;99959.34;7389056;19;20415;-60
2022/07/25 09:24:57;;;;;;;9.53;6.83;;;;;;;28.79;100.00;99955.88;7395033;19;20382;-60
2022/07/25 09:27:26;;;;;;;8.60;6.30;;;;;;;29.08;100.00;99961.63;7388464;19;20411;-61
2022/07/25 09:29:56;;;;;;;7.80;5.60;;;;;;;29.20;95.10;99994.69;7395307;19;20538;-60
2022/07/25 09:32:25;;;;;;;8.00;5.60;;;;;;;29.21;93.83;99994.59;7388091;19;20419;-60
2022/07/25 09:34:55;;;;;;;10.20;5.70;;;;;;;29.41;93.93;100000.75;7395175;19;20383;-60
2022/07/25 09:37:28;;;;;;;9.37;5.87;;;;;;;29.21;93.38;99994.59;7388399;19;20411;-60
2022/07/25 09:40:00;;;;;;;7.80;6.03;;;;;;;29.37;95.13;99983.22;7398965;19;20919;-59
2022/07/25 09:42:31;;;;;;;9.43;6.93;;;;;;;29.43;94.40;99980.25;7388750;19;21096;-60
2022/07/25 09:45:11;;;;;;;7.90;5.57;;;;;;;29.44;92.90;99984.66;7394704;19;20379;-60
2022/07/25 09:47:52;;;;;;;9.40;6.63;;;;;;;29.51;92.71;99983.44;7388346;19;20417;-60
2022/07/25 09:50:24;;;;;;;8.03;6.03;;;;;;;29.51;92.41;99987.88;7396225;19;20383;-60
2022/07/25 09:52:55;;;;;;;9.00;5.50;;;;;;;29.49;92.85;99985.31;7388617;19;20420;-60
2022/07/25 09:55:27;;;;;;;7.93;5.73;;;;;;;29.44;95.40;99960.75;7393742;19;20921;-60
2022/07/25 09:57:57;;;;;;;8.43;5.93;;;;;;;29.59;94.34;99966.25;7388820;19;20426;-60
2022/07/25 10:00:29;;;;;;;9.70;5.83;;;;;;;29.48;89.24;99999.53;7394705;19;20404;-60
2022/07/25 10:03:10;;;;;;;6.93;5.47;;;;;;;29.37;90.21;99993.84;7388014;19;20419;-60
2022/07/25 10:05:53;;;;;;;7.70;6.03;;;;;;;29.33;90.44;99992.28;7393506;19;21397;-60
2022/07/25 10:08:23;;;;;;;10.73;5.60;;;;;;;29.54;91.11;99984.22;7387284;19;20949;-60
2022/07/25 10:10:55;;;;;;;9.10;6.00;;;;;;;29.57;90.64;99984.94;7394349;19;20384;-60
2022/07/25 10:13:33;;;;;;;7.10;5.50;;;;;;;29.72;93.63;99967.34;7387609;19;20419;-60
2022/07/25 10:16:03;;;;;;;8.30;5.70;;;;;;;29.75;89.41;99999.09;7392335;19;20766;-61
2022/07/25 10:18:33;;;;;;;8.47;5.67;;;;;;;29.56;92.05;99980.56;7388141;19;20415;-60
2022/07/25 10:21:12;;;;;;;8.30;5.87;;;;;;;29.59;93.13;99976.88;7398206;19;20781;-61
2022/07/25 10:24:02;;;;;;;10.70;6.13;;;;;;;29.59;94.28;99960.94;7389702;19;20447;-60
2022/07/25 10:26:38;;;;;;;8.17;6.13;;;;;;;29.48;92.56;99967.66;7386669;19;20430;-62
2022/07/25 10:29:10;;;;;;;8.47;6.40;;;;;;;29.47;94.31;99952.66;7393504;19;20387;-60
2022/07/25 10:31:44;;;;;;;10.97;6.93;;;;;;;29.32;93.17;99961.38;7387136;19;20966;-60
2022/07/25 10:34:30;;;;;;;8.17;6.03;;;;;;;29.44;95.59;99950.13;7392944;19;20941;-59
2022/07/25 10:37:11;;;;;;;8.23;6.03;;;;;;;29.45;94.48;99956.28;7385174;19;20478;-60
2022/07/25 10:39:43;;;;;;;8.57;5.40;;;;;;;29.32;94.43;99948.09;7393626;19;20396;-60
2022/07/25 10:42:17;;;;;;;9.60;6.70;;;;;;;29.10;96.57;99944.69;7386705;19;20403;-60
2022/07/25 10:44:50;;;;;;;12.70;6.80;;;;;;;29.12;97.96;99928.69;7391535;19;20391;-60
2022/07/25 10:47:19;;;;;;;8.27;6.50;;;;;;;29.10;96.94;99933.19;7386165;19;20447;-61
2022/07/25 10:49:50;;;;;;;7.93;6.30;;;;;;;29.06;96.91;99921.88;7393156;19;20391;-60
2022/07/25 10:52:44;;;;;;;17.00;5.87;;;;;;;29.28;98.81;99915.53;7386687;19;20411;-60
2022/07/25 10:55:24;;;;;;;8.97;6.10;;;;;;;29.44;98.34;99917.38;7392282;19;20835;-60
2022/07/25 10:58:05;;;;;;;8.40;6.40;;;;;;;29.34;99.01;99904.59;7385807;19;20406;-60
2022/07/25 11:00:51;;;;;;;12.10;6.30;;;;;;;29.40;100.00;99884.81;7392704;19;20391;-60
2022/07/25 11:03:21;;;;;;;8.77;6.67;;;;;;;29.59;100.00;99892.72;7386803;19;20439;-60
2022/07/25 11:05:53;;;;;;;9.20;6.37;;;;;;;29.49;100.00;99879.03;7391518;19;20432;-59
2022/07/25 11:08:32;;;;;;;9.17;6.20;;;;;;;29.48;100.00;99887.94;7386083;19;20825;-60
2022/07/25 11:11:02;;;;;;;9.43;6.20;;;;;;;29.40;99.45;99898.09;7392457;19;20906;-61
2022/07/25 11:13:38;;;;;;;9.73;6.40;;;;;;;29.30;98.04;99910.09;7385369;19;20418;-60
2022/07/25 11:16:08;;;;;;;13.33;5.77;;;;;;;29.35;99.67;99901.00;7390542;19;20417;-59
2022/07/25 11:18:39;;;;;;;8.07;6.00;;;;;;;29.28;100.00;99893.41;7386077;19;20421;-60
2022/07/25 11:21:10;;;;;;;8.20;5.97;;;;;;;29.22;97.41;99911.34;7392501;19;20829;-60
2022/07/25 11:23:41;;;;;;;8.80;6.13;;;;;;;29.37;100.00;99883.16;7388574;19;20465;-60
2022/07/25 11:26:12;;;;;;;8.47;6.00;;;;;;;29.45;99.15;99890.75;7390781;19;20422;-60
2022/07/25 11:28:47;;;;;;;14.00;6.03;;;;;;;29.45;99.24;99898.72;7386362;19;20423;-60
2022/07/25 11:31:19;;;;;;;8.47;5.80;;;;;;;29.57;99.23;99891.09;7396683;19;20392;-60
2022/07/25 11:33:50;;;;;;;11.30;6.33;;;;;;;29.63;98.86;99894.28;7385670;19;20419;-61
2022/07/25 11:36:19;;;;;;;13.50;6.60;;;;;;;29.54;100.00;99888.59;7390853;19;20411;-60
2022/07/25 11:38:50;;;;;;;9.87;6.10;;;;;;;29.43;100.00;99881.97;7384262;19;20422;-59
2022/07/25 11:41:30;;;;;;;9.10;6.63;;;;;;;29.45;100.00;99880.13;7392081;19;20387;-60
2022/07/25 11:44:02;;;;;;;8.13;6.30;;;;;;;29.52;100.00;99862.09;7392970;19;20431;-60